RAM666T GMTT-LFPO
Flight info
| Callsign | RAM666T |
|---|---|
| Flight time | 2h 5m |
| Altitude | 18000 |
| Route | NOLRO DCT ADKIM Z53 VJF/N0449F380 N10 HIJ DCT RUSEM DCT SOTUK DCT USOKO DCT TLD DCT SIE DCT EDIGO DCT DGO L176 LUSEM DCT LULUT DCT TUDRA/N0419F280 DCT BEVOL UT158 AMB |
| Aircraft | B738/M-SDE3FGHIRWY/LB1 |
Departure
| Time | 2026-05-05 17:23 |
|---|---|
| Airport | Tangier Ibn Battuta Airport (GMTT) |
Arrival
| Time | 2026-05-05 19:28 |
|---|---|
| Airport | Paris-Orly Airport (LFPO) |
| Time | Latitude | Longitude | Altitude | Speed | Heading |
|---|---|---|---|---|---|
| 2026-05-05 16:54 | 35.72521 | -5.91250 | 59 ft | 0 kts | 355° |
| 2026-05-05 17:10 | 35.72518 | -5.91249 | 59 ft | 3 kts | 355° |
| 2026-05-05 17:11 | 35.72492 | -5.91245 | 57 ft | 4 kts | 347° |
| 2026-05-05 17:11 | 35.72467 | -5.91235 | 55 ft | 4 kts | 331° |
| 2026-05-05 17:11 | 35.72448 | -5.91216 | 54 ft | 4 kts | 287° |
| 2026-05-05 17:11 | 35.72446 | -5.91206 | 54 ft | 0 kts | 265° |
| 2026-05-05 17:17 | 35.72445 | -5.91216 | 55 ft | 4 kts | 265° |
| 2026-05-05 17:17 | 35.72441 | -5.91282 | 59 ft | 12 kts | 265° |
| 2026-05-05 17:17 | 35.72435 | -5.91408 | 55 ft | 17 kts | 265° |
| 2026-05-05 17:18 | 35.72428 | -5.91560 | 53 ft | 18 kts | 275° |
| 2026-05-05 17:18 | 35.72497 | -5.91679 | 53 ft | 18 kts | 338° |
| 2026-05-05 17:18 | 35.72617 | -5.91696 | 59 ft | 17 kts | 355° |
| 2026-05-05 17:18 | 35.72733 | -5.91707 | 59 ft | 16 kts | 355° |
| 2026-05-05 17:19 | 35.72844 | -5.91718 | 57 ft | 16 kts | 355° |
| 2026-05-05 17:19 | 35.72939 | -5.91684 | 56 ft | 15 kts | 67° |
| 2026-05-05 17:19 | 35.72931 | -5.91557 | 59 ft | 15 kts | 96° |
| 2026-05-05 17:19 | 35.72917 | -5.91416 | 59 ft | 19 kts | 96° |
| 2026-05-05 17:20 | 35.72901 | -5.91236 | 59 ft | 23 kts | 96° |
| 2026-05-05 17:20 | 35.72883 | -5.91045 | 59 ft | 22 kts | 96° |
| 2026-05-05 17:20 | 35.72866 | -5.90859 | 59 ft | 22 kts | 95° |
| 2026-05-05 17:20 | 35.72851 | -5.90678 | 55 ft | 21 kts | 96° |
| 2026-05-05 17:21 | 35.72831 | -5.90503 | 55 ft | 20 kts | 98° |
| 2026-05-05 17:21 | 35.72814 | -5.90333 | 54 ft | 20 kts | 96° |
| 2026-05-05 17:21 | 35.72873 | -5.90197 | 52 ft | 19 kts | 25° |
| 2026-05-05 17:22 | 35.73005 | -5.90406 | 52 ft | 18 kts | 275° |
| 2026-05-05 17:22 | 35.73018 | -5.90555 | 54 ft | 18 kts | 277° |
| 2026-05-05 17:22 | 35.73060 | -5.90991 | 53 ft | 87 kts | 276° |
| 2026-05-05 17:22 | 35.73160 | -5.91999 | 60 ft | 146 kts | 277° |
| 2026-05-05 17:23 | 35.73292 | -5.93292 | 594 ft | 156 kts | 278° |
| 2026-05-05 17:23 | 35.73421 | -5.94585 | 1473 ft | 153 kts | 280° |
| 2026-05-05 17:23 | 35.73595 | -5.96005 | 1788 ft | 182 kts | 279° |
| 2026-05-05 17:23 | 35.73794 | -5.97650 | 2023 ft | 206 kts | 278° |
| 2026-05-05 17:24 | 35.74008 | -5.99477 | 2280 ft | 224 kts | 278° |
| 2026-05-05 17:24 | 35.74399 | -6.01347 | 2786 ft | 229 kts | 297° |
| 2026-05-05 17:24 | 35.75428 | -6.02833 | 3396 ft | 231 kts | 324° |
| 2026-05-05 17:24 | 35.76919 | -6.03605 | 4058 ft | 239 kts | 348° |
| 2026-05-05 17:25 | 35.78647 | -6.03613 | 4572 ft | 257 kts | 6° |
| 2026-05-05 17:25 | 35.79838 | -6.03417 | 5034 ft | 262 kts | 7° |
| 2026-05-05 17:25 | 35.82284 | -6.03021 | 5990 ft | 269 kts | 5° |
| 2026-05-05 17:25 | 35.84135 | -6.02728 | 6816 ft | 270 kts | 5° |
| 2026-05-05 17:26 | 35.86021 | -6.02403 | 7499 ft | 277 kts | 7° |
| 2026-05-05 17:26 | 35.87943 | -6.02047 | 8247 ft | 283 kts | 9° |
| 2026-05-05 17:26 | 35.89743 | -6.01005 | 8978 ft | 295 kts | 40° |
| 2026-05-05 17:26 | 35.90872 | -5.98874 | 9770 ft | 304 kts | 72° |
| 2026-05-05 17:27 | 35.90988 | -5.96269 | 10426 ft | 313 kts | 102° |
| 2026-05-05 17:27 | 35.90607 | -5.93520 | 10607 ft | 339 kts | 89° |
| 2026-05-05 17:27 | 35.91224 | -5.90646 | 10873 ft | 358 kts | 59° |
| 2026-05-05 17:27 | 35.92903 | -5.88377 | 11452 ft | 362 kts | 33° |
| 2026-05-05 17:28 | 35.95126 | -5.87053 | 12183 ft | 361 kts | 12° |
| 2026-05-05 17:28 | 35.97602 | -5.86716 | 12970 ft | 358 kts | 353° |
| 2026-05-05 17:28 | 36.00024 | -5.87368 | 13757 ft | 357 kts | 339° |
| 2026-05-05 17:28 | 36.02399 | -5.88338 | 14472 ft | 362 kts | 338° |
| 2026-05-05 17:29 | 36.04781 | -5.89364 | 15262 ft | 364 kts | 338° |
| 2026-05-05 17:29 | 36.07179 | -5.90408 | 16043 ft | 367 kts | 337° |
| 2026-05-05 17:29 | 36.09604 | -5.91462 | 16794 ft | 371 kts | 338° |
| 2026-05-05 17:29 | 36.12051 | -5.92518 | 17561 ft | 375 kts | 338° |
| 2026-05-05 17:30 | 36.14528 | -5.93582 | 18307 ft | 378 kts | 338° |
| 2026-05-05 17:30 | 36.17029 | -5.94654 | 18935 ft | 382 kts | 337° |
| 2026-05-05 17:30 | 36.19588 | -5.95751 | 19573 ft | 386 kts | 337° |
| 2026-05-05 17:30 | 36.22131 | -5.96739 | 20172 ft | 393 kts | 343° |
| 2026-05-05 17:31 | 36.24868 | -5.97199 | 20778 ft | 402 kts | 353° |
| 2026-05-05 17:31 | 36.27686 | -5.97070 | 21376 ft | 410 kts | 3° |
| 2026-05-05 17:31 | 36.30536 | -5.96591 | 21942 ft | 415 kts | 4° |
| 2026-05-05 17:31 | 36.33411 | -5.96050 | 22488 ft | 420 kts | 5° |
| 2026-05-05 17:32 | 36.36312 | -5.95491 | 23086 ft | 424 kts | 5° |
| 2026-05-05 17:32 | 36.39231 | -5.94933 | 23731 ft | 425 kts | 4° |
| 2026-05-05 17:32 | 36.42159 | -5.94386 | 24187 ft | 428 kts | 4° |
| 2026-05-05 17:32 | 36.45126 | -5.93843 | 24621 ft | 432 kts | 4° |
| 2026-05-05 17:33 | 36.48114 | -5.93304 | 25067 ft | 436 kts | 4° |
| 2026-05-05 17:33 | 36.51118 | -5.92765 | 25504 ft | 439 kts | 4° |
| 2026-05-05 17:33 | 36.54150 | -5.92224 | 25944 ft | 441 kts | 3° |
| 2026-05-05 17:33 | 36.57208 | -5.91678 | 26365 ft | 445 kts | 3° |
| 2026-05-05 17:34 | 36.60277 | -5.91130 | 26788 ft | 448 kts | 3° |
| 2026-05-05 17:34 | 36.63373 | -5.90577 | 27219 ft | 451 kts | 3° |
| 2026-05-05 17:34 | 36.66487 | -5.90019 | 27620 ft | 454 kts | 3° |
| 2026-05-05 17:34 | 36.69622 | -5.89458 | 27984 ft | 457 kts | 3° |
| 2026-05-05 17:35 | 36.72783 | -5.88891 | 28349 ft | 461 kts | 3° |
| 2026-05-05 17:35 | 36.75962 | -5.88321 | 28707 ft | 464 kts | 3° |
| 2026-05-05 17:35 | 36.79174 | -5.87744 | 29049 ft | 467 kts | 2° |
| 2026-05-05 17:35 | 36.82397 | -5.87164 | 29403 ft | 470 kts | 2° |
| 2026-05-05 17:36 | 36.85649 | -5.86578 | 29774 ft | 473 kts | 2° |
| 2026-05-05 17:36 | 36.88900 | -5.85991 | 30181 ft | 473 kts | 2° |
| 2026-05-05 17:36 | 36.92168 | -5.85401 | 30466 ft | 475 kts | 2° |
| 2026-05-05 17:36 | 36.95451 | -5.84808 | 30716 ft | 478 kts | 2° |
| 2026-05-05 17:37 | 36.98741 | -5.84214 | 31055 ft | 479 kts | 2° |
| 2026-05-05 17:37 | 37.00920 | -5.83819 | 31311 ft | 478 kts | 2° |
| 2026-05-05 17:37 | 37.05315 | -5.83021 | 31866 ft | 476 kts | 2° |
| 2026-05-05 17:37 | 37.08595 | -5.82426 | 32238 ft | 476 kts | 2° |
| 2026-05-05 17:38 | 37.11866 | -5.81833 | 32663 ft | 475 kts | 2° |
| 2026-05-05 17:38 | 37.15126 | -5.81241 | 33105 ft | 473 kts | 2° |
| 2026-05-05 17:38 | 37.18384 | -5.80649 | 33489 ft | 472 kts | 2° |
| 2026-05-05 17:38 | 37.21636 | -5.80059 | 33819 ft | 472 kts | 2° |
| 2026-05-05 17:39 | 37.24889 | -5.79468 | 34133 ft | 472 kts | 2° |
| 2026-05-05 17:39 | 37.28136 | -5.78877 | 34471 ft | 471 kts | 2° |
| 2026-05-05 17:39 | 37.31369 | -5.78287 | 34802 ft | 470 kts | 2° |
| 2026-05-05 17:39 | 37.34602 | -5.77697 | 35144 ft | 469 kts | 2° |
| 2026-05-05 17:40 | 37.37773 | -5.77118 | 35541 ft | 465 kts | 2° |
| 2026-05-05 17:40 | 37.40973 | -5.76507 | 35875 ft | 466 kts | 5° |
| 2026-05-05 17:40 | 37.44136 | -5.75457 | 36110 ft | 475 kts | 14° |
| 2026-05-05 17:40 | 37.47227 | -5.73760 | 36358 ft | 480 kts | 20° |
| 2026-05-05 17:41 | 37.50191 | -5.71944 | 36651 ft | 480 kts | 21° |
| 2026-05-05 17:41 | 37.53174 | -5.70076 | 36932 ft | 480 kts | 21° |
| 2026-05-05 17:41 | 37.56171 | -5.68200 | 37163 ft | 480 kts | 21° |
| 2026-05-05 17:41 | 37.59165 | -5.66341 | 37480 ft | 479 kts | 20° |
| 2026-05-05 17:42 | 37.62146 | -5.64508 | 37857 ft | 476 kts | 20° |
| 2026-05-05 17:42 | 37.68147 | -5.60853 | 37956 ft | 480 kts | 20° |
| 2026-05-05 17:43 | 37.74140 | -5.57211 | 37948 ft | 476 kts | 20° |
| 2026-05-05 17:43 | 37.80088 | -5.53589 | 37954 ft | 473 kts | 20° |
| 2026-05-05 17:44 | 37.86004 | -5.49980 | 37973 ft | 471 kts | 19° |
| 2026-05-05 17:44 | 37.91899 | -5.46377 | 37969 ft | 471 kts | 19° |
| 2026-05-05 17:45 | 37.97804 | -5.42761 | 37967 ft | 472 kts | 20° |
| 2026-05-05 17:45 | 38.03720 | -5.39132 | 37972 ft | 473 kts | 19° |
| 2026-05-05 17:46 | 38.09659 | -5.35481 | 37983 ft | 475 kts | 19° |
| 2026-05-05 17:46 | 38.15622 | -5.31810 | 37945 ft | 477 kts | 19° |
| 2026-05-05 17:47 | 38.21605 | -5.28117 | 37969 ft | 478 kts | 19° |
| 2026-05-05 17:47 | 38.27591 | -5.24416 | 37968 ft | 479 kts | 19° |
| 2026-05-05 17:48 | 38.33600 | -5.20694 | 37960 ft | 481 kts | 20° |
| 2026-05-05 17:48 | 38.39613 | -5.16962 | 37965 ft | 481 kts | 20° |
| 2026-05-05 17:49 | 38.45642 | -5.13214 | 37955 ft | 482 kts | 20° |
| 2026-05-05 17:49 | 38.51672 | -5.09496 | 37957 ft | 480 kts | 18° |
| 2026-05-05 17:50 | 38.57824 | -5.06258 | 37974 ft | 477 kts | 14° |
| 2026-05-05 17:50 | 38.63971 | -5.03216 | 37964 ft | 477 kts | 14° |
| 2026-05-05 17:51 | 38.70136 | -5.00106 | 37955 ft | 476 kts | 15° |
| 2026-05-05 17:51 | 38.76282 | -4.96952 | 37957 ft | 475 kts | 15° |
| 2026-05-05 17:52 | 38.82411 | -4.93792 | 37962 ft | 474 kts | 15° |
| 2026-05-05 17:52 | 38.88532 | -4.90633 | 37958 ft | 474 kts | 15° |
| 2026-05-05 17:53 | 38.94635 | -4.87479 | 37957 ft | 473 kts | 15° |
| 2026-05-05 17:53 | 39.00735 | -4.84321 | 37953 ft | 472 kts | 15° |
| 2026-05-05 17:54 | 39.06829 | -4.81155 | 37959 ft | 472 kts | 15° |
| 2026-05-05 17:54 | 39.12917 | -4.77984 | 37956 ft | 472 kts | 15° |
| 2026-05-05 17:55 | 39.17969 | -4.75349 | 37941 ft | 471 kts | 15° |
| 2026-05-05 17:55 | 39.24046 | -4.72180 | 37961 ft | 471 kts | 15° |
| 2026-05-05 17:56 | 39.30124 | -4.69015 | 37950 ft | 471 kts | 15° |
| 2026-05-05 17:56 | 39.36200 | -4.65843 | 37953 ft | 471 kts | 15° |
| 2026-05-05 17:57 | 39.42289 | -4.62657 | 37952 ft | 472 kts | 15° |
| 2026-05-05 17:57 | 39.48375 | -4.59466 | 37945 ft | 472 kts | 15° |
| 2026-05-05 17:58 | 39.54467 | -4.56265 | 37951 ft | 473 kts | 15° |
| 2026-05-05 17:58 | 39.60564 | -4.53056 | 37949 ft | 474 kts | 15° |
| 2026-05-05 17:59 | 39.66676 | -4.49833 | 37941 ft | 475 kts | 15° |
| 2026-05-05 17:59 | 39.72795 | -4.46599 | 37976 ft | 475 kts | 15° |
| 2026-05-05 18:00 | 39.78929 | -4.43352 | 37959 ft | 476 kts | 15° |
| 2026-05-05 18:00 | 39.85060 | -4.40075 | 37949 ft | 477 kts | 16° |
| 2026-05-05 18:01 | 39.91194 | -4.36773 | 37948 ft | 477 kts | 16° |
| 2026-05-05 18:01 | 39.97332 | -4.33468 | 37944 ft | 478 kts | 17° |
| 2026-05-05 18:02 | 40.03417 | -4.29888 | 37941 ft | 480 kts | 19° |
| 2026-05-05 18:02 | 40.09454 | -4.26136 | 37935 ft | 480 kts | 19° |
| 2026-05-05 18:03 | 40.15450 | -4.22424 | 37937 ft | 480 kts | 19° |
| 2026-05-05 18:03 | 40.21491 | -4.18717 | 37941 ft | 480 kts | 19° |
| 2026-05-05 18:04 | 40.27531 | -4.15021 | 37941 ft | 479 kts | 19° |
| 2026-05-05 18:04 | 40.33558 | -4.11326 | 37944 ft | 478 kts | 19° |
| 2026-05-05 18:05 | 40.39580 | -4.07625 | 37943 ft | 477 kts | 19° |
| 2026-05-05 18:05 | 40.45592 | -4.03923 | 37956 ft | 477 kts | 19° |
| 2026-05-05 18:06 | 40.51579 | -4.00226 | 37952 ft | 475 kts | 19° |
| 2026-05-05 18:06 | 40.57548 | -3.96535 | 37958 ft | 473 kts | 19° |
| 2026-05-05 18:07 | 40.63493 | -3.92851 | 37971 ft | 472 kts | 19° |
| 2026-05-05 18:07 | 40.69430 | -3.89166 | 37958 ft | 471 kts | 19° |
| 2026-05-05 18:08 | 40.75354 | -3.85481 | 37969 ft | 470 kts | 19° |
| 2026-05-05 18:08 | 40.81271 | -3.81793 | 37962 ft | 470 kts | 19° |
| 2026-05-05 18:09 | 40.87187 | -3.78099 | 37976 ft | 471 kts | 20° |
| 2026-05-05 18:09 | 40.93121 | -3.74386 | 37960 ft | 472 kts | 20° |
| 2026-05-05 18:10 | 40.99048 | -3.70668 | 37977 ft | 472 kts | 20° |
| 2026-05-05 18:10 | 41.04992 | -3.66933 | 37991 ft | 473 kts | 20° |
| 2026-05-05 18:11 | 41.10940 | -3.63189 | 37986 ft | 474 kts | 20° |
| 2026-05-05 18:11 | 41.16918 | -3.59476 | 37997 ft | 473 kts | 18° |
| 2026-05-05 18:12 | 41.22995 | -3.56145 | 37998 ft | 473 kts | 16° |
| 2026-05-05 18:12 | 41.29106 | -3.52884 | 37992 ft | 473 kts | 17° |
| 2026-05-05 18:13 | 41.35208 | -3.49566 | 38002 ft | 474 kts | 17° |
| 2026-05-05 18:13 | 41.41299 | -3.46216 | 38004 ft | 474 kts | 17° |
| 2026-05-05 18:14 | 41.47393 | -3.42859 | 38008 ft | 474 kts | 17° |
| 2026-05-05 18:14 | 41.53483 | -3.39503 | 38022 ft | 473 kts | 18° |
| 2026-05-05 18:15 | 41.59571 | -3.36145 | 38014 ft | 473 kts | 18° |
| 2026-05-05 18:15 | 41.65654 | -3.32784 | 38010 ft | 473 kts | 18° |
| 2026-05-05 18:16 | 41.71696 | -3.29437 | 38013 ft | 473 kts | 18° |
| 2026-05-05 18:16 | 41.77813 | -3.26041 | 38013 ft | 473 kts | 18° |
| 2026-05-05 18:17 | 41.83897 | -3.22657 | 38008 ft | 473 kts | 18° |
| 2026-05-05 18:17 | 41.89974 | -3.19269 | 38004 ft | 473 kts | 18° |
| 2026-05-05 18:18 | 41.96040 | -3.15881 | 38031 ft | 473 kts | 18° |
| 2026-05-05 18:18 | 42.02119 | -3.12479 | 38021 ft | 473 kts | 18° |
| 2026-05-05 18:19 | 42.08153 | -3.09095 | 38015 ft | 473 kts | 18° |
| 2026-05-05 18:19 | 42.14231 | -3.05678 | 38017 ft | 473 kts | 18° |
| 2026-05-05 18:20 | 42.20309 | -3.02254 | 38025 ft | 473 kts | 18° |
| 2026-05-05 18:20 | 42.26383 | -2.98826 | 38023 ft | 473 kts | 18° |
| 2026-05-05 18:21 | 42.32462 | -2.95387 | 38010 ft | 474 kts | 19° |
| 2026-05-05 18:21 | 42.38539 | -2.91943 | 38041 ft | 474 kts | 19° |
| 2026-05-05 18:22 | 42.44578 | -2.88321 | 38004 ft | 478 kts | 26° |
| 2026-05-05 18:22 | 42.49898 | -2.82869 | 38031 ft | 483 kts | 39° |
| 2026-05-05 18:23 | 42.54875 | -2.76723 | 38007 ft | 484 kts | 39° |
| 2026-05-05 18:23 | 42.59855 | -2.70593 | 38033 ft | 484 kts | 39° |
| 2026-05-05 18:24 | 42.64871 | -2.64498 | 38009 ft | 484 kts | 39° |
| 2026-05-05 18:24 | 42.69891 | -2.58419 | 38017 ft | 483 kts | 39° |
| 2026-05-05 18:25 | 42.74906 | -2.52332 | 38014 ft | 483 kts | 39° |
| 2026-05-05 18:25 | 42.79916 | -2.46233 | 38012 ft | 483 kts | 39° |
| 2026-05-05 18:26 | 42.84920 | -2.40126 | 38003 ft | 483 kts | 39° |
| 2026-05-05 18:26 | 42.89920 | -2.34008 | 38000 ft | 482 kts | 39° |
| 2026-05-05 18:27 | 42.94909 | -2.27892 | 37987 ft | 482 kts | 39° |
| 2026-05-05 18:27 | 42.99857 | -2.21809 | 38033 ft | 481 kts | 39° |
| 2026-05-05 18:28 | 43.07314 | -2.12586 | 37997 ft | 482 kts | 40° |
| 2026-05-05 18:28 | 43.12281 | -2.06428 | 37998 ft | 482 kts | 40° |
| 2026-05-05 18:29 | 43.17253 | -2.00260 | 37999 ft | 482 kts | 40° |
| 2026-05-05 18:29 | 43.22219 | -1.94085 | 38007 ft | 482 kts | 40° |
| 2026-05-05 18:30 | 43.27182 | -1.87898 | 37998 ft | 483 kts | 40° |
| 2026-05-05 18:30 | 43.32295 | -1.81962 | 37989 ft | 480 kts | 30° |
| 2026-05-05 18:31 | 43.38122 | -1.77546 | 37994 ft | 478 kts | 26° |
| 2026-05-05 18:31 | 43.43797 | -1.72743 | 38009 ft | 480 kts | 31° |
| 2026-05-05 18:32 | 43.49327 | -1.67583 | 38003 ft | 481 kts | 32° |
| 2026-05-05 18:32 | 43.54875 | -1.62436 | 37986 ft | 481 kts | 31° |
| 2026-05-05 18:33 | 43.60447 | -1.57347 | 37985 ft | 480 kts | 31° |
| 2026-05-05 18:33 | 43.66025 | -1.52279 | 37977 ft | 480 kts | 31° |
| 2026-05-05 18:34 | 43.71604 | -1.47201 | 37975 ft | 480 kts | 31° |
| 2026-05-05 18:34 | 43.77167 | -1.42121 | 37974 ft | 480 kts | 31° |
| 2026-05-05 18:35 | 43.82733 | -1.37026 | 37986 ft | 479 kts | 32° |
| 2026-05-05 18:35 | 43.88296 | -1.31921 | 37973 ft | 479 kts | 32° |
| 2026-05-05 18:36 | 43.93853 | -1.26810 | 37970 ft | 479 kts | 32° |
| 2026-05-05 18:36 | 43.99409 | -1.21688 | 37969 ft | 479 kts | 32° |
| 2026-05-05 18:37 | 44.04956 | -1.16563 | 37977 ft | 479 kts | 32° |
| 2026-05-05 18:37 | 44.10501 | -1.11428 | 37961 ft | 479 kts | 32° |
| 2026-05-05 18:38 | 44.16037 | -1.06289 | 37962 ft | 478 kts | 32° |
| 2026-05-05 18:38 | 44.21537 | -1.01173 | 37961 ft | 478 kts | 32° |
| 2026-05-05 18:39 | 44.27100 | -0.95985 | 37962 ft | 478 kts | 32° |
| 2026-05-05 18:39 | 44.32593 | -0.90851 | 37950 ft | 478 kts | 32° |
| 2026-05-05 18:40 | 44.38120 | -0.85673 | 37948 ft | 478 kts | 32° |
| 2026-05-05 18:40 | 44.43805 | -0.80895 | 37965 ft | 476 kts | 26° |
| 2026-05-05 18:41 | 44.49711 | -0.76684 | 37953 ft | 476 kts | 25° |
| 2026-05-05 18:41 | 44.55632 | -0.72505 | 37937 ft | 477 kts | 25° |
| 2026-05-05 18:42 | 44.60578 | -0.68942 | 37941 ft | 477 kts | 26° |
| 2026-05-05 18:42 | 44.66427 | -0.64670 | 37944 ft | 477 kts | 26° |
| 2026-05-05 18:43 | 44.72309 | -0.60348 | 37940 ft | 477 kts | 26° |
| 2026-05-05 18:43 | 44.78189 | -0.56018 | 37937 ft | 477 kts | 26° |
| 2026-05-05 18:44 | 44.84064 | -0.51684 | 37940 ft | 477 kts | 26° |
| 2026-05-05 18:44 | 44.89937 | -0.47344 | 37939 ft | 477 kts | 26° |
| 2026-05-05 18:45 | 44.95822 | -0.42985 | 37925 ft | 477 kts | 26° |
| 2026-05-05 18:45 | 45.01693 | -0.38625 | 37937 ft | 476 kts | 26° |
| 2026-05-05 18:46 | 45.07551 | -0.34265 | 37922 ft | 476 kts | 26° |
| 2026-05-05 18:46 | 45.13402 | -0.29901 | 37922 ft | 474 kts | 26° |
| 2026-05-05 18:47 | 45.19231 | -0.25541 | 37924 ft | 474 kts | 27° |
| 2026-05-05 18:47 | 45.25053 | -0.21178 | 37917 ft | 473 kts | 27° |
| 2026-05-05 18:48 | 45.30859 | -0.16816 | 37911 ft | 472 kts | 27° |
| 2026-05-05 18:48 | 45.36660 | -0.12448 | 37912 ft | 471 kts | 27° |
| 2026-05-05 18:49 | 45.42451 | -0.08077 | 37914 ft | 471 kts | 27° |
| 2026-05-05 18:49 | 45.48237 | -0.03700 | 37909 ft | 471 kts | 27° |
| 2026-05-05 18:50 | 45.54016 | 0.00683 | 37902 ft | 471 kts | 27° |
| 2026-05-05 18:50 | 45.59798 | 0.05077 | 37919 ft | 471 kts | 27° |
| 2026-05-05 18:51 | 45.65587 | 0.09488 | 37903 ft | 472 kts | 27° |
| 2026-05-05 18:51 | 45.71379 | 0.13911 | 37908 ft | 473 kts | 27° |
| 2026-05-05 18:52 | 45.77181 | 0.18353 | 37914 ft | 473 kts | 27° |
| 2026-05-05 18:52 | 45.82981 | 0.22803 | 37912 ft | 473 kts | 27° |
| 2026-05-05 18:53 | 45.88781 | 0.27265 | 37910 ft | 473 kts | 28° |
| 2026-05-05 18:53 | 45.94589 | 0.31742 | 37901 ft | 473 kts | 28° |
| 2026-05-05 18:54 | 46.00391 | 0.36226 | 37908 ft | 473 kts | 28° |
| 2026-05-05 18:54 | 46.06190 | 0.40719 | 37884 ft | 474 kts | 28° |
| 2026-05-05 18:55 | 46.11992 | 0.45225 | 37892 ft | 473 kts | 28° |
| 2026-05-05 18:55 | 46.17744 | 0.49702 | 37893 ft | 473 kts | 28° |
| 2026-05-05 18:56 | 46.23537 | 0.54222 | 37887 ft | 473 kts | 28° |
| 2026-05-05 18:56 | 46.29320 | 0.58746 | 37887 ft | 472 kts | 28° |
| 2026-05-05 18:57 | 46.35096 | 0.63275 | 37880 ft | 472 kts | 28° |
| 2026-05-05 18:57 | 46.40904 | 0.67842 | 37880 ft | 472 kts | 28° |
| 2026-05-05 18:58 | 46.46669 | 0.72384 | 37877 ft | 471 kts | 28° |
| 2026-05-05 18:58 | 46.52438 | 0.76905 | 37869 ft | 471 kts | 25° |
| 2026-05-05 18:59 | 46.58641 | 0.79810 | 37880 ft | 469 kts | 11° |
| 2026-05-05 18:59 | 46.64993 | 0.81698 | 37853 ft | 469 kts | 11° |
| 2026-05-05 19:00 | 46.71429 | 0.83636 | 37867 ft | 469 kts | 11° |
| 2026-05-05 19:00 | 46.77808 | 0.85638 | 37867 ft | 469 kts | 12° |
| 2026-05-05 19:01 | 46.84087 | 0.87638 | 37859 ft | 458 kts | 12° |
| 2026-05-05 19:01 | 46.90346 | 0.89633 | 37827 ft | 459 kts | 12° |
| 2026-05-05 19:02 | 46.93436 | 0.90619 | 37412 ft | 453 kts | 12° |
| 2026-05-05 19:02 | 46.96511 | 0.91600 | 36738 ft | 454 kts | 12° |
| 2026-05-05 19:02 | 46.99617 | 0.92592 | 35979 ft | 458 kts | 12° |
| 2026-05-05 19:02 | 47.02700 | 0.93576 | 35258 ft | 461 kts | 12° |
| 2026-05-05 19:03 | 47.05836 | 0.94572 | 34572 ft | 462 kts | 12° |
| 2026-05-05 19:03 | 47.09010 | 0.95577 | 33922 ft | 463 kts | 13° |
| 2026-05-05 19:03 | 47.12129 | 0.96565 | 33239 ft | 461 kts | 13° |
| 2026-05-05 19:03 | 47.15255 | 0.97556 | 32654 ft | 456 kts | 13° |
| 2026-05-05 19:04 | 47.18346 | 0.98538 | 32078 ft | 451 kts | 14° |
| 2026-05-05 19:04 | 47.21355 | 0.99496 | 31491 ft | 447 kts | 14° |
| 2026-05-05 19:04 | 47.24384 | 1.00462 | 30839 ft | 444 kts | 14° |
| 2026-05-05 19:04 | 47.27422 | 1.01433 | 30182 ft | 440 kts | 15° |
| 2026-05-05 19:05 | 47.30407 | 1.02388 | 29435 ft | 436 kts | 15° |
| 2026-05-05 19:05 | 47.33374 | 1.03340 | 28375 ft | 438 kts | 15° |
| 2026-05-05 19:05 | 47.36372 | 1.04304 | 27116 ft | 444 kts | 14° |
| 2026-05-05 19:05 | 47.39414 | 1.05282 | 25806 ft | 451 kts | 14° |
| 2026-05-05 19:06 | 47.42455 | 1.06259 | 24702 ft | 455 kts | 13° |
| 2026-05-05 19:06 | 47.45529 | 1.07460 | 24224 ft | 446 kts | 18° |
| 2026-05-05 19:06 | 47.48407 | 1.08883 | 24067 ft | 426 kts | 20° |
| 2026-05-05 19:06 | 47.51099 | 1.10319 | 23932 ft | 409 kts | 21° |
| 2026-05-05 19:07 | 47.53711 | 1.11730 | 23850 ft | 392 kts | 21° |
| 2026-05-05 19:07 | 47.56264 | 1.13095 | 23856 ft | 389 kts | 20° |
| 2026-05-05 19:07 | 47.58785 | 1.14421 | 23648 ft | 381 kts | 20° |
| 2026-05-05 19:07 | 47.61276 | 1.15715 | 23142 ft | 378 kts | 20° |
| 2026-05-05 19:08 | 47.63798 | 1.17014 | 22439 ft | 378 kts | 19° |
| 2026-05-05 19:08 | 47.66288 | 1.18291 | 21755 ft | 378 kts | 19° |
| 2026-05-05 19:08 | 47.68738 | 1.19545 | 21175 ft | 377 kts | 19° |
| 2026-05-05 19:08 | 47.71205 | 1.20808 | 20626 ft | 374 kts | 19° |
| 2026-05-05 19:09 | 47.73662 | 1.22066 | 20015 ft | 374 kts | 19° |
| 2026-05-05 19:09 | 47.76119 | 1.23326 | 19433 ft | 374 kts | 19° |
| 2026-05-05 19:09 | 47.78571 | 1.24584 | 18885 ft | 373 kts | 19° |
| 2026-05-05 19:09 | 47.81025 | 1.25845 | 18336 ft | 372 kts | 18° |
| 2026-05-05 19:10 | 47.83475 | 1.27107 | 17762 ft | 373 kts | 18° |
| 2026-05-05 19:10 | 47.85886 | 1.28350 | 17288 ft | 359 kts | 18° |
| 2026-05-05 19:10 | 47.88208 | 1.29547 | 16819 ft | 347 kts | 18° |
| 2026-05-05 19:10 | 47.90442 | 1.30698 | 16367 ft | 335 kts | 18° |
| 2026-05-05 19:11 | 47.92620 | 1.31823 | 15920 ft | 325 kts | 18° |
| 2026-05-05 19:11 | 47.94726 | 1.32911 | 15484 ft | 317 kts | 18° |
| 2026-05-05 19:11 | 47.96791 | 1.33979 | 15053 ft | 310 kts | 18° |
| 2026-05-05 19:11 | 47.98817 | 1.35026 | 14635 ft | 306 kts | 18° |
| 2026-05-05 19:12 | 48.00828 | 1.36067 | 14234 ft | 305 kts | 18° |
| 2026-05-05 19:12 | 48.02827 | 1.37103 | 13827 ft | 303 kts | 17° |
| 2026-05-05 19:12 | 48.04817 | 1.38135 | 13388 ft | 302 kts | 17° |
| 2026-05-05 19:12 | 48.06744 | 1.39360 | 12866 ft | 302 kts | 31° |
| 2026-05-05 19:13 | 48.08454 | 1.41130 | 12301 ft | 299 kts | 35° |
| 2026-05-05 19:13 | 48.10159 | 1.42927 | 11679 ft | 300 kts | 34° |
| 2026-05-05 19:13 | 48.11875 | 1.44693 | 11339 ft | 297 kts | 34° |
| 2026-05-05 19:13 | 48.13581 | 1.46430 | 10979 ft | 297 kts | 33° |
| 2026-05-05 19:14 | 48.15298 | 1.48169 | 10633 ft | 296 kts | 33° |
| 2026-05-05 19:14 | 48.16981 | 1.49872 | 10508 ft | 288 kts | 33° |
| 2026-05-05 19:14 | 48.18642 | 1.51553 | 10253 ft | 288 kts | 33° |
| 2026-05-05 19:14 | 48.20296 | 1.53227 | 10039 ft | 285 kts | 34° |
| 2026-05-05 19:15 | 48.21929 | 1.54883 | 9844 ft | 282 kts | 34° |
| 2026-05-05 19:15 | 48.23533 | 1.56508 | 9759 ft | 274 kts | 35° |
| 2026-05-05 19:15 | 48.25101 | 1.58100 | 9515 ft | 272 kts | 34° |
| 2026-05-05 19:15 | 48.26670 | 1.59695 | 9239 ft | 271 kts | 34° |
| 2026-05-05 19:16 | 48.28216 | 1.61268 | 9024 ft | 267 kts | 35° |
| 2026-05-05 19:16 | 48.29751 | 1.62831 | 8693 ft | 267 kts | 34° |
| 2026-05-05 19:16 | 48.31281 | 1.64390 | 8462 ft | 264 kts | 34° |
| 2026-05-05 19:16 | 48.32786 | 1.65925 | 8215 ft | 260 kts | 34° |
| 2026-05-05 19:17 | 48.34286 | 1.67454 | 7842 ft | 262 kts | 34° |
| 2026-05-05 19:17 | 48.35799 | 1.68999 | 7511 ft | 262 kts | 34° |
| 2026-05-05 19:17 | 48.37302 | 1.70534 | 7340 ft | 256 kts | 34° |
| 2026-05-05 19:17 | 48.38789 | 1.72055 | 6957 ft | 260 kts | 34° |
| 2026-05-05 19:18 | 48.40235 | 1.73628 | 6851 ft | 254 kts | 38° |
| 2026-05-05 19:18 | 48.41565 | 1.75328 | 6831 ft | 249 kts | 40° |
| 2026-05-05 19:18 | 48.42862 | 1.77039 | 6835 ft | 247 kts | 40° |
| 2026-05-05 19:18 | 48.44138 | 1.78771 | 6796 ft | 247 kts | 41° |
| 2026-05-05 19:19 | 48.45391 | 1.80503 | 6662 ft | 241 kts | 41° |
| 2026-05-05 19:19 | 48.46628 | 1.82222 | 6353 ft | 242 kts | 42° |
| 2026-05-05 19:19 | 48.47869 | 1.83939 | 6161 ft | 241 kts | 38° |
| 2026-05-05 19:19 | 48.49164 | 1.85555 | 6177 ft | 240 kts | 34° |
| 2026-05-05 19:20 | 48.50634 | 1.86849 | 5844 ft | 241 kts | 36° |
| 2026-05-05 19:20 | 48.51894 | 1.88449 | 5359 ft | 235 kts | 41° |
| 2026-05-05 19:20 | 48.53108 | 1.90114 | 4734 ft | 235 kts | 41° |
| 2026-05-05 19:20 | 48.54309 | 1.91776 | 4218 ft | 234 kts | 41° |
| 2026-05-05 19:21 | 48.55514 | 1.93451 | 4073 ft | 237 kts | 41° |
| 2026-05-05 19:21 | 48.56714 | 1.95125 | 4013 ft | 233 kts | 42° |
| 2026-05-05 19:21 | 48.57903 | 1.96784 | 4043 ft | 233 kts | 41° |
| 2026-05-05 19:21 | 48.59102 | 1.98461 | 4058 ft | 236 kts | 43° |
| 2026-05-05 19:22 | 48.60192 | 2.00328 | 4063 ft | 235 kts | 49° |
| 2026-05-05 19:22 | 48.61361 | 2.02008 | 4117 ft | 223 kts | 42° |
| 2026-05-05 19:22 | 48.62244 | 2.03836 | 4002 ft | 205 kts | 61° |
| 2026-05-05 19:22 | 48.62870 | 2.05656 | 3992 ft | 187 kts | 59° |
| 2026-05-05 19:23 | 48.63475 | 2.07374 | 3927 ft | 184 kts | 59° |
| 2026-05-05 19:23 | 48.64072 | 2.09081 | 3710 ft | 183 kts | 59° |
| 2026-05-05 19:23 | 48.64658 | 2.10757 | 3459 ft | 176 kts | 59° |
| 2026-05-05 19:23 | 48.65208 | 2.12330 | 3228 ft | 163 kts | 59° |
| 2026-05-05 19:24 | 48.65714 | 2.13778 | 3018 ft | 150 kts | 59° |
| 2026-05-05 19:24 | 48.66034 | 2.14692 | 2889 ft | 148 kts | 58° |
| 2026-05-05 19:24 | 48.66507 | 2.16041 | 2707 ft | 142 kts | 58° |
| 2026-05-05 19:24 | 48.66949 | 2.17303 | 2528 ft | 130 kts | 58° |
| 2026-05-05 19:25 | 48.67366 | 2.18492 | 2366 ft | 128 kts | 58° |
| 2026-05-05 19:25 | 48.67782 | 2.19674 | 2191 ft | 128 kts | 58° |
| 2026-05-05 19:25 | 48.68198 | 2.20860 | 2021 ft | 127 kts | 58° |
| 2026-05-05 19:25 | 48.68611 | 2.22037 | 1842 ft | 125 kts | 57° |
| 2026-05-05 19:26 | 48.69019 | 2.23201 | 1680 ft | 127 kts | 56° |
| 2026-05-05 19:26 | 48.69440 | 2.24386 | 1484 ft | 128 kts | 58° |
| 2026-05-05 19:26 | 48.69852 | 2.25570 | 1286 ft | 127 kts | 58° |
| 2026-05-05 19:26 | 48.70271 | 2.26766 | 1113 ft | 133 kts | 58° |
| 2026-05-05 19:27 | 48.70703 | 2.27994 | 927 ft | 130 kts | 59° |
| 2026-05-05 19:27 | 48.71122 | 2.29231 | 930 ft | 133 kts | 62° |
| 2026-05-05 19:27 | 48.71564 | 2.30495 | 693 ft | 134 kts | 57° |
| 2026-05-05 19:27 | 48.71995 | 2.31688 | 363 ft | 124 kts | 58° |
| 2026-05-05 19:28 | 48.72379 | 2.32725 | 296 ft | 100 kts | 63° |
| 2026-05-05 19:28 | 48.72628 | 2.33455 | 293 ft | 57 kts | 62° |
| 2026-05-05 19:28 | 48.72740 | 2.33790 | 297 ft | 22 kts | 67° |
| 2026-05-05 19:28 | 48.72769 | 2.34013 | 293 ft | 21 kts | 83° |
| 2026-05-05 19:29 | 48.72791 | 2.34230 | 291 ft | 21 kts | 81° |
| 2026-05-05 19:29 | 48.72806 | 2.34380 | 290 ft | 13 kts | 81° |
| 2026-05-05 19:29 | 48.72820 | 2.34513 | 294 ft | 13 kts | 82° |
| 2026-05-05 19:29 | 48.72830 | 2.34644 | 290 ft | 12 kts | 83° |
| 2026-05-05 19:30 | 48.72840 | 2.34773 | 292 ft | 12 kts | 83° |
| 2026-05-05 19:30 | 48.72851 | 2.34897 | 291 ft | 12 kts | 81° |
| 2026-05-05 19:30 | 48.72864 | 2.35018 | 294 ft | 11 kts | 81° |
| 2026-05-05 19:30 | 48.72875 | 2.35132 | 293 ft | 11 kts | 82° |
| 2026-05-05 19:31 | 48.72886 | 2.35249 | 290 ft | 11 kts | 82° |
| 2026-05-05 19:31 | 48.72896 | 2.35361 | 290 ft | 11 kts | 82° |
| 2026-05-05 19:31 | 48.72854 | 2.35433 | 289 ft | 10 kts | 162° |
| 2026-05-05 19:31 | 48.72785 | 2.35460 | 292 ft | 10 kts | 166° |
| 2026-05-05 19:32 | 48.72719 | 2.35485 | 290 ft | 10 kts | 165° |
| 2026-05-05 19:32 | 48.72656 | 2.35511 | 292 ft | 9 kts | 163° |
| 2026-05-05 19:32 | 48.72593 | 2.35540 | 289 ft | 9 kts | 163° |
| 2026-05-05 19:32 | 48.72539 | 2.35564 | 292 ft | 0 kts | 164° |
| 2026-05-05 19:35 | 48.72515 | 2.35575 | 289 ft | 10 kts | 164° |
| 2026-05-05 19:35 | 48.72462 | 2.35673 | 289 ft | 15 kts | 77° |
| 2026-05-05 19:35 | 48.72477 | 2.35825 | 290 ft | 15 kts | 96° |
| 2026-05-05 19:35 | 48.72468 | 2.35973 | 289 ft | 14 kts | 92° |
| 2026-05-05 19:36 | 48.72487 | 2.36124 | 290 ft | 16 kts | 73° |
| 2026-05-05 19:36 | 48.72517 | 2.36284 | 291 ft | 16 kts | 75° |
| 2026-05-05 19:36 | 48.72549 | 2.36457 | 292 ft | 18 kts | 74° |
| 2026-05-05 19:36 | 48.72582 | 2.36632 | 289 ft | 17 kts | 70° |
| 2026-05-05 19:37 | 48.72625 | 2.36798 | 293 ft | 17 kts | 71° |
| 2026-05-05 19:37 | 48.72661 | 2.36972 | 291 ft | 17 kts | 75° |
| 2026-05-05 19:37 | 48.72696 | 2.37061 | 290 ft | 7 kts | 5° |
| 2026-05-05 19:37 | 48.72731 | 2.37050 | 293 ft | 4 kts | 344° |
| 2026-05-05 19:38 | 48.72736 | 2.37048 | 293 ft | 0 kts | 344° |